sensor_id;sensor_type;location;lat;lon;timestamp;P1;durP1;ratioP1;P2;durP2;ratioP2
27744;SDS011;61387;48.112;8.616;2022-11-15T00:01:51;5.57;;;3.40;;
27744;SDS011;61387;48.112;8.616;2022-11-15T00:04:16;7.20;;;3.43;;
27744;SDS011;61387;48.112;8.616;2022-11-15T00:06:42;5.50;;;3.03;;
27744;SDS011;61387;48.112;8.616;2022-11-15T00:09:08;7.53;;;3.73;;
27744;SDS011;61387;48.112;8.616;2022-11-15T00:11:34;7.00;;;4.13;;
27744;SDS011;61387;48.112;8.616;2022-11-15T00:14:00;5.00;;;3.20;;
27744;SDS011;61387;48.112;8.616;2022-11-15T00:16:29;3.70;;;2.50;;
27744;SDS011;61387;48.112;8.616;2022-11-15T00:18:55;7.57;;;3.30;;
27744;SDS011;61387;48.112;8.616;2022-11-15T00:21:22;6.67;;;3.50;;
27744;SDS011;61387;48.112;8.616;2022-11-15T00:23:48;6.10;;;3.13;;
27744;SDS011;61387;48.112;8.616;2022-11-15T00:26:14;5.20;;;3.43;;
27744;SDS011;61387;48.112;8.616;2022-11-15T00:28:41;6.37;;;3.80;;
27744;SDS011;61387;48.112;8.616;2022-11-15T00:31:08;6.83;;;3.13;;
27744;SDS011;61387;48.112;8.616;2022-11-15T00:33:36;7.40;;;3.43;;
27744;SDS011;61387;48.112;8.616;2022-11-15T00:36:03;6.57;;;3.43;;
27744;SDS011;61387;48.112;8.616;2022-11-15T00:38:34;5.87;;;3.50;;
27744;SDS011;61387;48.112;8.616;2022-11-15T00:41:00;5.77;;;3.10;;
27744;SDS011;61387;48.112;8.616;2022-11-15T00:43:27;8.10;;;3.40;;
27744;SDS011;61387;48.112;8.616;2022-11-15T00:45:52;6.77;;;3.10;;
27744;SDS011;61387;48.112;8.616;2022-11-15T00:48:18;4.50;;;3.10;;
27744;SDS011;61387;48.112;8.616;2022-11-15T00:50:44;5.50;;;3.03;;
27744;SDS011;61387;48.112;8.616;2022-11-15T00:53:10;4.80;;;2.60;;
27744;SDS011;61387;48.112;8.616;2022-11-15T00:55:36;7.93;;;4.57;;
27744;SDS011;61387;48.112;8.616;2022-11-15T00:58:02;8.97;;;3.87;;
27744;SDS011;61387;48.112;8.616;2022-11-15T01:00:28;7.10;;;4.00;;
27744;SDS011;61387;48.112;8.616;2022-11-15T01:02:54;6.83;;;3.73;;
27744;SDS011;61387;48.112;8.616;2022-11-15T01:05:20;7.13;;;4.00;;
27744;SDS011;61387;48.112;8.616;2022-11-15T01:07:46;7.17;;;3.87;;
27744;SDS011;61387;48.112;8.616;2022-11-15T01:10:12;6.27;;;3.50;;
27744;SDS011;61387;48.112;8.616;2022-11-15T01:12:38;8.30;;;3.57;;
27744;SDS011;61387;48.112;8.616;2022-11-15T01:15:04;6.27;;;3.40;;
27744;SDS011;61387;48.112;8.616;2022-11-15T01:17:30;7.43;;;3.30;;
27744;SDS011;61387;48.112;8.616;2022-11-15T01:19:56;6.13;;;3.20;;
27744;SDS011;61387;48.112;8.616;2022-11-15T01:22:22;4.40;;;2.60;;
27744;SDS011;61387;48.112;8.616;2022-11-15T01:24:51;4.87;;;3.10;;
27744;SDS011;61387;48.112;8.616;2022-11-15T01:27:17;3.80;;;2.40;;
27744;SDS011;61387;48.112;8.616;2022-11-15T01:29:42;5.83;;;3.17;;
27744;SDS011;61387;48.112;8.616;2022-11-15T01:32:08;3.83;;;2.35;;
27744;SDS011;61387;48.112;8.616;2022-11-15T01:34:34;6.53;;;2.70;;
27744;SDS011;61387;48.112;8.616;2022-11-15T01:37:00;6.90;;;2.97;;
27744;SDS011;61387;48.112;8.616;2022-11-15T01:39:26;3.13;;;2.30;;
27744;SDS011;61387;48.112;8.616;2022-11-15T01:41:52;4.97;;;2.87;;
27744;SDS011;61387;48.112;8.616;2022-11-15T01:46:56;4.77;;;2.87;;
27744;SDS011;61387;48.112;8.616;2022-11-15T01:49:24;5.80;;;2.83;;
27744;SDS011;61387;48.112;8.616;2022-11-15T01:51:51;4.87;;;2.60;;
27744;SDS011;61387;48.112;8.616;2022-11-15T01:54:18;6.77;;;3.57;;
27744;SDS011;61387;48.112;8.616;2022-11-15T01:57:05;6.87;;;3.20;;
27744;SDS011;61387;48.112;8.616;2022-11-15T01:59:34;5.60;;;2.60;;
27744;SDS011;61387;48.112;8.616;2022-11-15T02:02:01;4.87;;;2.80;;
27744;SDS011;61387;48.112;8.616;2022-11-15T02:04:40;4.80;;;2.80;;
27744;SDS011;61387;48.112;8.616;2022-11-15T02:07:08;6.37;;;2.80;;
27744;SDS011;61387;48.112;8.616;2022-11-15T02:09:37;4.97;;;2.70;;
27744;SDS011;61387;48.112;8.616;2022-11-15T02:12:03;6.67;;;3.07;;
27744;SDS011;61387;48.112;8.616;2022-11-15T02:14:29;7.00;;;3.50;;
27744;SDS011;61387;48.112;8.616;2022-11-15T02:36:01;5.43;;;3.53;;
27744;SDS011;61387;48.112;8.616;2022-11-15T02:38:40;6.10;;;3.77;;
27744;SDS011;61387;48.112;8.616;2022-11-15T02:41:24;5.23;;;3.23;;
27744;SDS011;61387;48.112;8.616;2022-11-15T02:49:34;7.30;;;3.67;;
27744;SDS011;61387;48.112;8.616;2022-11-15T02:52:02;6.03;;;3.50;;
27744;SDS011;61387;48.112;8.616;2022-11-15T02:54:29;5.43;;;3.37;;
27744;SDS011;61387;48.112;8.616;2022-11-15T02:57:07;6.33;;;3.43;;
27744;SDS011;61387;48.112;8.616;2022-11-15T02:59:49;5.13;;;3.10;;
27744;SDS011;61387;48.112;8.616;2022-11-15T03:10:33;11.30;;;5.13;;
27744;SDS011;61387;48.112;8.616;2022-11-15T03:13:27;9.03;;;4.67;;
27744;SDS011;61387;48.112;8.616;2022-11-15T03:15:55;7.40;;;4.73;;
27744;SDS011;61387;48.112;8.616;2022-11-15T03:18:30;8.33;;;4.67;;
27744;SDS011;61387;48.112;8.616;2022-11-15T03:20:59;9.17;;;4.97;;
27744;SDS011;61387;48.112;8.616;2022-11-15T03:23:28;10.40;;;5.50;;
27744;SDS011;61387;48.112;8.616;2022-11-15T03:25:56;8.23;;;4.83;;
27744;SDS011;61387;48.112;8.616;2022-11-15T03:28:32;9.93;;;4.70;;
27744;SDS011;61387;48.112;8.616;2022-11-15T03:31:02;7.93;;;4.53;;
27744;SDS011;61387;48.112;8.616;2022-11-15T03:33:51;8.70;;;4.40;;
27744;SDS011;61387;48.112;8.616;2022-11-15T03:36:20;8.47;;;5.17;;
27744;SDS011;61387;48.112;8.616;2022-11-15T03:38:48;9.50;;;4.53;;
27744;SDS011;61387;48.112;8.616;2022-11-15T03:41:20;10.10;;;4.33;;
27744;SDS011;61387;48.112;8.616;2022-11-15T03:43:52;7.00;;;4.30;;
27744;SDS011;61387;48.112;8.616;2022-11-15T03:46:46;7.40;;;4.53;;
27744;SDS011;61387;48.112;8.616;2022-11-15T03:49:43;8.47;;;4.37;;
27744;SDS011;61387;48.112;8.616;2022-11-15T03:52:14;7.93;;;4.30;;
27744;SDS011;61387;48.112;8.616;2022-11-15T03:54:47;7.83;;;4.30;;
27744;SDS011;61387;48.112;8.616;2022-11-15T03:57:17;7.67;;;4.00;;
27744;SDS011;61387;48.112;8.616;2022-11-15T03:59:43;6.47;;;3.87;;
27744;SDS011;61387;48.112;8.616;2022-11-15T04:02:09;6.53;;;3.70;;
27744;SDS011;61387;48.112;8.616;2022-11-15T04:04:35;7.13;;;4.00;;
27744;SDS011;61387;48.112;8.616;2022-11-15T04:07:01;5.43;;;3.67;;
27744;SDS011;61387;48.112;8.616;2022-11-15T04:09:27;5.70;;;3.33;;
27744;SDS011;61387;48.112;8.616;2022-11-15T04:11:53;6.00;;;3.40;;
27744;SDS011;61387;48.112;8.616;2022-11-15T04:14:19;7.03;;;4.00;;
27744;SDS011;61387;48.112;8.616;2022-11-15T04:16:45;7.43;;;3.77;;
27744;SDS011;61387;48.112;8.616;2022-11-15T04:19:11;7.77;;;4.07;;
27744;SDS011;61387;48.112;8.616;2022-11-15T04:21:55;7.17;;;3.93;;
27744;SDS011;61387;48.112;8.616;2022-11-15T04:24:39;8.00;;;3.97;;
27744;SDS011;61387;48.112;8.616;2022-11-15T04:27:05;8.17;;;3.83;;
27744;SDS011;61387;48.112;8.616;2022-11-15T04:29:31;7.87;;;3.80;;
27744;SDS011;61387;48.112;8.616;2022-11-15T04:32:00;7.27;;;4.10;;
27744;SDS011;61387;48.112;8.616;2022-11-15T04:34:30;8.87;;;4.40;;
27744;SDS011;61387;48.112;8.616;2022-11-15T04:36:56;8.10;;;4.80;;
27744;SDS011;61387;48.112;8.616;2022-11-15T04:39:37;7.23;;;3.90;;
27744;SDS011;61387;48.112;8.616;2022-11-15T04:42:02;7.77;;;3.97;;
27744;SDS011;61387;48.112;8.616;2022-11-15T04:44:28;6.77;;;3.90;;
27744;SDS011;61387;48.112;8.616;2022-11-15T04:46:54;8.55;;;3.92;;
27744;SDS011;61387;48.112;8.616;2022-11-15T04:49:20;6.77;;;4.47;;
27744;SDS011;61387;48.112;8.616;2022-11-15T04:51:46;8.43;;;4.13;;
27744;SDS011;61387;48.112;8.616;2022-11-15T04:54:12;6.70;;;3.97;;
27744;SDS011;61387;48.112;8.616;2022-11-15T04:56:38;6.60;;;3.80;;
27744;SDS011;61387;48.112;8.616;2022-11-15T04:59:04;6.23;;;4.30;;
27744;SDS011;61387;48.112;8.616;2022-11-15T05:01:30;8.73;;;4.80;;
27744;SDS011;61387;48.112;8.616;2022-11-15T05:03:56;7.00;;;4.27;;
27744;SDS011;61387;48.112;8.616;2022-11-15T05:06:40;8.30;;;4.60;;
27744;SDS011;61387;48.112;8.616;2022-11-15T05:09:06;10.52;;;4.15;;
27744;SDS011;61387;48.112;8.616;2022-11-15T05:11:32;8.17;;;3.87;;
27744;SDS011;61387;48.112;8.616;2022-11-15T05:13:58;6.63;;;3.90;;
27744;SDS011;61387;48.112;8.616;2022-11-15T05:16:24;7.27;;;3.80;;
27744;SDS011;61387;48.112;8.616;2022-11-15T05:18:51;8.37;;;4.90;;
27744;SDS011;61387;48.112;8.616;2022-11-15T05:21:17;6.07;;;3.73;;
27744;SDS011;61387;48.112;8.616;2022-11-15T05:23:43;6.37;;;3.70;;
27744;SDS011;61387;48.112;8.616;2022-11-15T05:26:09;6.97;;;4.47;;
27744;SDS011;61387;48.112;8.616;2022-11-15T05:28:36;7.13;;;4.10;;
27744;SDS011;61387;48.112;8.616;2022-11-15T05:31:10;7.03;;;4.03;;
27744;SDS011;61387;48.112;8.616;2022-11-15T05:33:38;9.40;;;4.43;;
27744;SDS011;61387;48.112;8.616;2022-11-15T05:38:49;5.23;;;2.87;;
27744;SDS011;61387;48.112;8.616;2022-11-15T05:41:16;4.03;;;2.90;;
27744;SDS011;61387;48.112;8.616;2022-11-15T05:43:44;5.13;;;2.77;;
27744;SDS011;61387;48.112;8.616;2022-11-15T05:46:11;6.57;;;3.20;;
27744;SDS011;61387;48.112;8.616;2022-11-15T05:48:38;5.80;;;3.13;;
27744;SDS011;61387;48.112;8.616;2022-11-15T05:51:08;5.83;;;3.37;;
27744;SDS011;61387;48.112;8.616;2022-11-15T05:53:34;7.57;;;3.70;;
27744;SDS011;61387;48.112;8.616;2022-11-15T05:56:02;8.50;;;4.00;;
27744;SDS011;61387;48.112;8.616;2022-11-15T05:58:30;7.20;;;3.97;;
27744;SDS011;61387;48.112;8.616;2022-11-15T06:00:56;7.20;;;3.50;;
27744;SDS011;61387;48.112;8.616;2022-11-15T06:03:22;9.07;;;3.87;;
27744;SDS011;61387;48.112;8.616;2022-11-15T06:05:48;7.97;;;3.50;;
27744;SDS011;61387;48.112;8.616;2022-11-15T06:08:14;5.97;;;3.07;;
27744;SDS011;61387;48.112;8.616;2022-11-15T06:10:40;4.53;;;2.70;;
27744;SDS011;61387;48.112;8.616;2022-11-15T06:13:06;4.77;;;2.80;;
27744;SDS011;61387;48.112;8.616;2022-11-15T06:15:32;5.33;;;2.80;;
27744;SDS011;61387;48.112;8.616;2022-11-15T06:18:01;5.13;;;2.80;;
27744;SDS011;61387;48.112;8.616;2022-11-15T06:20:28;5.30;;;2.90;;
27744;SDS011;61387;48.112;8.616;2022-11-15T06:23:01;5.00;;;2.90;;
27744;SDS011;61387;48.112;8.616;2022-11-15T06:25:28;6.20;;;3.17;;
27744;SDS011;61387;48.112;8.616;2022-11-15T06:27:55;6.37;;;3.20;;
27744;SDS011;61387;48.112;8.616;2022-11-15T06:30:22;8.87;;;3.60;;
27744;SDS011;61387;48.112;8.616;2022-11-15T06:32:48;5.97;;;3.20;;
27744;SDS011;61387;48.112;8.616;2022-11-15T06:35:14;7.53;;;3.43;;
27744;SDS011;61387;48.112;8.616;2022-11-15T06:37:40;10.30;;;4.20;;
27744;SDS011;61387;48.112;8.616;2022-11-15T06:40:07;11.50;;;3.50;;
27744;SDS011;61387;48.112;8.616;2022-11-15T06:42:33;10.90;;;6.83;;
27744;SDS011;61387;48.112;8.616;2022-11-15T06:44:59;8.67;;;5.23;;
27744;SDS011;61387;48.112;8.616;2022-11-15T06:47:25;7.63;;;3.97;;
27744;SDS011;61387;48.112;8.616;2022-11-15T06:49:51;7.67;;;3.40;;
27744;SDS011;61387;48.112;8.616;2022-11-15T06:52:17;6.13;;;3.47;;
27744;SDS011;61387;48.112;8.616;2022-11-15T06:54:44;8.10;;;4.43;;
27744;SDS011;61387;48.112;8.616;2022-11-15T06:57:10;17.60;;;6.40;;
27744;SDS011;61387;48.112;8.616;2022-11-15T06:59:37;10.37;;;5.50;;
27744;SDS011;61387;48.112;8.616;2022-11-15T07:02:03;11.57;;;6.80;;
27744;SDS011;61387;48.112;8.616;2022-11-15T07:04:29;9.50;;;5.23;;
27744;SDS011;61387;48.112;8.616;2022-11-15T07:06:55;10.70;;;6.13;;
27744;SDS011;61387;48.112;8.616;2022-11-15T07:09:21;10.07;;;5.20;;
27744;SDS011;61387;48.112;8.616;2022-11-15T07:11:47;9.40;;;5.50;;
27744;SDS011;61387;48.112;8.616;2022-11-15T07:14:13;10.23;;;5.30;;
27744;SDS011;61387;48.112;8.616;2022-11-15T07:16:38;10.93;;;5.37;;
27744;SDS011;61387;48.112;8.616;2022-11-15T07:19:04;7.03;;;4.53;;
27744;SDS011;61387;48.112;8.616;2022-11-15T07:21:30;9.57;;;5.07;;
27744;SDS011;61387;48.112;8.616;2022-11-15T07:23:56;10.70;;;5.13;;
27744;SDS011;61387;48.112;8.616;2022-11-15T07:26:22;11.33;;;6.40;;
27744;SDS011;61387;48.112;8.616;2022-11-15T07:28:48;13.93;;;7.10;;
27744;SDS011;61387;48.112;8.616;2022-11-15T07:31:14;10.17;;;6.23;;
27744;SDS011;61387;48.112;8.616;2022-11-15T07:33:40;10.40;;;4.70;;
27744;SDS011;61387;48.112;8.616;2022-11-15T07:36:06;7.10;;;4.50;;
27744;SDS011;61387;48.112;8.616;2022-11-15T07:38:33;9.90;;;4.67;;
27744;SDS011;61387;48.112;8.616;2022-11-15T07:41:00;7.80;;;4.00;;
27744;SDS011;61387;48.112;8.616;2022-11-15T07:43:27;10.27;;;5.30;;
27744;SDS011;61387;48.112;8.616;2022-11-15T07:45:54;8.27;;;4.97;;
27744;SDS011;61387;48.112;8.616;2022-11-15T07:48:20;7.43;;;4.50;;
27744;SDS011;61387;48.112;8.616;2022-11-15T07:50:46;8.77;;;4.47;;
27744;SDS011;61387;48.112;8.616;2022-11-15T07:53:12;10.90;;;4.80;;
27744;SDS011;61387;48.112;8.616;2022-11-15T07:55:39;7.70;;;4.57;;
27744;SDS011;61387;48.112;8.616;2022-11-15T07:58:07;8.07;;;4.20;;
27744;SDS011;61387;48.112;8.616;2022-11-15T08:00:34;9.67;;;5.37;;
27744;SDS011;61387;48.112;8.616;2022-11-15T08:05:34;12.73;;;5.17;;
27744;SDS011;61387;48.112;8.616;2022-11-15T08:08:00;8.43;;;4.77;;
27744;SDS011;61387;48.112;8.616;2022-11-15T08:10:27;11.93;;;7.67;;
27744;SDS011;61387;48.112;8.616;2022-11-15T08:12:56;12.23;;;5.90;;
27744;SDS011;61387;48.112;8.616;2022-11-15T08:15:29;7.63;;;4.40;;
27744;SDS011;61387;48.112;8.616;2022-11-15T08:17:56;10.50;;;4.50;;
27744;SDS011;61387;48.112;8.616;2022-11-15T08:20:23;9.27;;;5.00;;
27744;SDS011;61387;48.112;8.616;2022-11-15T08:22:50;14.83;;;6.67;;
27744;SDS011;61387;48.112;8.616;2022-11-15T08:25:16;14.23;;;7.13;;
27744;SDS011;61387;48.112;8.616;2022-11-15T08:27:42;17.90;;;7.47;;
27744;SDS011;61387;48.112;8.616;2022-11-15T08:30:08;10.70;;;7.07;;
27744;SDS011;61387;48.112;8.616;2022-11-15T08:32:34;10.30;;;6.53;;
27744;SDS011;61387;48.112;8.616;2022-11-15T08:35:00;8.30;;;5.67;;
27744;SDS011;61387;48.112;8.616;2022-11-15T08:37:26;11.00;;;6.20;;
27744;SDS011;61387;48.112;8.616;2022-11-15T08:39:51;11.73;;;5.87;;
27744;SDS011;61387;48.112;8.616;2022-11-15T08:42:17;11.20;;;5.60;;
27744;SDS011;61387;48.112;8.616;2022-11-15T08:44:43;11.80;;;6.00;;
27744;SDS011;61387;48.112;8.616;2022-11-15T08:47:12;10.80;;;5.60;;
27744;SDS011;61387;48.112;8.616;2022-11-15T08:49:38;11.33;;;6.00;;
27744;SDS011;61387;48.112;8.616;2022-11-15T08:52:04;15.10;;;7.70;;
27744;SDS011;61387;48.112;8.616;2022-11-15T08:54:30;13.80;;;7.43;;
27744;SDS011;61387;48.112;8.616;2022-11-15T08:56:56;9.60;;;6.10;;
27744;SDS011;61387;48.112;8.616;2022-11-15T08:59:22;11.67;;;6.17;;
27744;SDS011;61387;48.112;8.616;2022-11-15T09:01:48;11.70;;;5.77;;
27744;SDS011;61387;48.112;8.616;2022-11-15T09:04:14;9.63;;;5.90;;
27744;SDS011;61387;48.112;8.616;2022-11-15T09:06:40;10.77;;;5.90;;
27744;SDS011;61387;48.112;8.616;2022-11-15T09:09:06;11.83;;;6.03;;
27744;SDS011;61387;48.112;8.616;2022-11-15T09:11:32;8.97;;;5.60;;
27744;SDS011;61387;48.112;8.616;2022-11-15T09:13:58;11.70;;;5.60;;
27744;SDS011;61387;48.112;8.616;2022-11-15T09:16:24;10.67;;;5.50;;
27744;SDS011;61387;48.112;8.616;2022-11-15T09:18:50;11.33;;;5.20;;
27744;SDS011;61387;48.112;8.616;2022-11-15T09:21:16;9.23;;;5.20;;
27744;SDS011;61387;48.112;8.616;2022-11-15T09:23:42;8.70;;;5.53;;
27744;SDS011;61387;48.112;8.616;2022-11-15T09:26:08;10.60;;;6.27;;
27744;SDS011;61387;48.112;8.616;2022-11-15T09:28:34;9.53;;;5.73;;
27744;SDS011;61387;48.112;8.616;2022-11-15T09:31:02;15.43;;;6.93;;
27744;SDS011;61387;48.112;8.616;2022-11-15T09:33:29;12.67;;;5.10;;
27744;SDS011;61387;48.112;8.616;2022-11-15T09:35:59;11.57;;;4.93;;
27744;SDS011;61387;48.112;8.616;2022-11-15T09:38:26;7.00;;;4.80;;
27744;SDS011;61387;48.112;8.616;2022-11-15T09:40:55;10.43;;;5.10;;
27744;SDS011;61387;48.112;8.616;2022-11-15T09:49:51;12.13;;;6.57;;
27744;SDS011;61387;48.112;8.616;2022-11-15T09:52:23;11.10;;;5.40;;
27744;SDS011;61387;48.112;8.616;2022-11-15T09:54:49;7.97;;;4.30;;
27744;SDS011;61387;48.112;8.616;2022-11-15T09:57:17;7.27;;;4.57;;
27744;SDS011;61387;48.112;8.616;2022-11-15T10:05:19;9.47;;;4.90;;
27744;SDS011;61387;48.112;8.616;2022-11-15T10:07:54;9.60;;;5.00;;
27744;SDS011;61387;48.112;8.616;2022-11-15T10:10:29;9.23;;;4.87;;
27744;SDS011;61387;48.112;8.616;2022-11-15T10:13:07;7.70;;;4.47;;
27744;SDS011;61387;48.112;8.616;2022-11-15T10:16:05;8.20;;;3.73;;
27744;SDS011;61387;48.112;8.616;2022-11-15T10:18:50;7.53;;;3.40;;
27744;SDS011;61387;48.112;8.616;2022-11-15T10:24:24;9.03;;;3.73;;
27744;SDS011;61387;48.112;8.616;2022-11-15T10:26:53;6.17;;;3.17;;
27744;SDS011;61387;48.112;8.616;2022-11-15T10:29:20;8.00;;;3.73;;
27744;SDS011;61387;48.112;8.616;2022-11-15T10:31:46;6.30;;;3.70;;
27744;SDS011;61387;48.112;8.616;2022-11-15T10:34:16;7.03;;;4.03;;
27744;SDS011;61387;48.112;8.616;2022-11-15T10:36:57;7.43;;;3.77;;
27744;SDS011;61387;48.112;8.616;2022-11-15T10:39:23;6.33;;;4.00;;
27744;SDS011;61387;48.112;8.616;2022-11-15T10:41:50;6.23;;;4.10;;
27744;SDS011;61387;48.112;8.616;2022-11-15T10:46:42;8.63;;;4.57;;
27744;SDS011;61387;48.112;8.616;2022-11-15T10:49:21;7.10;;;4.30;;
27744;SDS011;61387;48.112;8.616;2022-11-15T10:51:48;9.57;;;4.43;;
27744;SDS011;61387;48.112;8.616;2022-11-15T10:54:20;9.03;;;4.43;;
27744;SDS011;61387;48.112;8.616;2022-11-15T10:56:55;10.13;;;6.37;;
27744;SDS011;61387;48.112;8.616;2022-11-15T10:59:26;11.37;;;6.93;;
27744;SDS011;61387;48.112;8.616;2022-11-15T11:01:55;8.63;;;4.60;;
27744;SDS011;61387;48.112;8.616;2022-11-15T11:04:22;7.87;;;4.60;;
27744;SDS011;61387;48.112;8.616;2022-11-15T11:06:52;8.50;;;4.53;;
27744;SDS011;61387;48.112;8.616;2022-11-15T11:09:30;9.20;;;4.80;;
27744;SDS011;61387;48.112;8.616;2022-11-15T11:12:00;8.37;;;4.47;;
27744;SDS011;61387;48.112;8.616;2022-11-15T11:14:37;7.60;;;4.40;;
27744;SDS011;61387;48.112;8.616;2022-11-15T11:20:09;7.30;;;4.27;;
27744;SDS011;61387;48.112;8.616;2022-11-15T11:23:26;6.13;;;3.53;;
27744;SDS011;61387;48.112;8.616;2022-11-15T11:31:43;6.00;;;3.83;;
27744;SDS011;61387;48.112;8.616;2022-11-15T11:37:07;8.37;;;4.30;;
27744;SDS011;61387;48.112;8.616;2022-11-15T11:48:12;7.30;;;4.40;;
27744;SDS011;61387;48.112;8.616;2022-11-15T11:51:18;7.00;;;4.00;;
27744;SDS011;61387;48.112;8.616;2022-11-15T11:53:49;5.40;;;3.50;;
27744;SDS011;61387;48.112;8.616;2022-11-15T11:56:43;5.77;;;3.17;;
27744;SDS011;61387;48.112;8.616;2022-11-15T11:59:12;6.10;;;3.60;;
27744;SDS011;61387;48.112;8.616;2022-11-15T12:02:00;6.87;;;3.83;;
27744;SDS011;61387;48.112;8.616;2022-11-15T12:04:38;11.47;;;4.10;;
27744;SDS011;61387;48.112;8.616;2022-11-15T12:15:43;4.50;;;2.80;;
27744;SDS011;61387;48.112;8.616;2022-11-15T12:18:13;4.70;;;3.07;;
27744;SDS011;61387;48.112;8.616;2022-11-15T12:20:54;4.30;;;2.80;;
27744;SDS011;61387;48.112;8.616;2022-11-15T12:23:24;8.43;;;3.13;;
27744;SDS011;61387;48.112;8.616;2022-11-15T12:26:28;4.60;;;3.13;;
27744;SDS011;61387;48.112;8.616;2022-11-15T12:34:01;4.50;;;2.80;;
27744;SDS011;61387;48.112;8.616;2022-11-15T12:36:45;5.67;;;2.70;;
27744;SDS011;61387;48.112;8.616;2022-11-15T12:39:12;4.37;;;2.23;;
27744;SDS011;61387;48.112;8.616;2022-11-15T12:41:39;5.37;;;3.23;;
27744;SDS011;61387;48.112;8.616;2022-11-15T12:44:10;3.90;;;2.37;;
27744;SDS011;61387;48.112;8.616;2022-11-15T12:49:10;4.60;;;2.90;;
27744;SDS011;61387;48.112;8.616;2022-11-15T12:59:47;5.83;;;2.70;;
27744;SDS011;61387;48.112;8.616;2022-11-15T13:02:19;8.70;;;3.23;;
27744;SDS011;61387;48.112;8.616;2022-11-15T13:04:48;10.40;;;3.40;;
27744;SDS011;61387;48.112;8.616;2022-11-15T13:17:44;5.17;;;2.40;;
27744;SDS011;61387;48.112;8.616;2022-11-15T13:22:47;5.17;;;3.23;;
27744;SDS011;61387;48.112;8.616;2022-11-15T13:25:18;4.23;;;2.77;;
27744;SDS011;61387;48.112;8.616;2022-11-15T13:27:47;5.33;;;2.80;;
27744;SDS011;61387;48.112;8.616;2022-11-15T13:30:18;7.23;;;4.00;;
27744;SDS011;61387;48.112;8.616;2022-11-15T13:32:46;11.00;;;5.67;;
27744;SDS011;61387;48.112;8.616;2022-11-15T13:35:23;5.57;;;3.23;;
27744;SDS011;61387;48.112;8.616;2022-11-15T13:37:52;4.47;;;2.57;;
27744;SDS011;61387;48.112;8.616;2022-11-15T13:40:29;7.00;;;3.10;;
27744;SDS011;61387;48.112;8.616;2022-11-15T13:42:59;4.93;;;2.67;;
27744;SDS011;61387;48.112;8.616;2022-11-15T13:45:25;3.57;;;2.53;;
27744;SDS011;61387;48.112;8.616;2022-11-15T13:47:53;10.43;;;3.40;;
27744;SDS011;61387;48.112;8.616;2022-11-15T13:50:21;5.63;;;3.93;;
27744;SDS011;61387;48.112;8.616;2022-11-15T13:52:50;6.77;;;3.53;;
27744;SDS011;61387;48.112;8.616;2022-11-15T13:55:19;6.30;;;3.63;;
27744;SDS011;61387;48.112;8.616;2022-11-15T14:02:51;11.73;;;5.77;;
27744;SDS011;61387;48.112;8.616;2022-11-15T14:05:18;10.43;;;4.17;;
27744;SDS011;61387;48.112;8.616;2022-11-15T14:07:56;8.07;;;4.30;;
27744;SDS011;61387;48.112;8.616;2022-11-15T14:10:29;6.13;;;3.67;;
27744;SDS011;61387;48.112;8.616;2022-11-15T14:13:00;4.40;;;2.93;;
27744;SDS011;61387;48.112;8.616;2022-11-15T14:15:33;5.73;;;3.17;;
27744;SDS011;61387;48.112;8.616;2022-11-15T14:18:00;4.57;;;3.07;;
27744;SDS011;61387;48.112;8.616;2022-11-15T14:20:32;4.20;;;2.23;;
27744;SDS011;61387;48.112;8.616;2022-11-15T14:23:04;5.60;;;2.53;;
27744;SDS011;61387;48.112;8.616;2022-11-15T14:25:36;8.93;;;5.70;;
27744;SDS011;61387;48.112;8.616;2022-11-15T14:30:36;5.93;;;2.80;;
27744;SDS011;61387;48.112;8.616;2022-11-15T14:33:11;4.23;;;2.83;;
27744;SDS011;61387;48.112;8.616;2022-11-15T14:35:46;12.67;;;5.27;;
27744;SDS011;61387;48.112;8.616;2022-11-15T14:38:12;8.00;;;3.63;;
27744;SDS011;61387;48.112;8.616;2022-11-15T14:40:38;7.73;;;3.80;;
27744;SDS011;61387;48.112;8.616;2022-11-15T14:43:04;8.63;;;4.50;;
27744;SDS011;61387;48.112;8.616;2022-11-15T14:45:30;15.03;;;8.53;;
27744;SDS011;61387;48.112;8.616;2022-11-15T14:47:56;17.40;;;8.97;;
27744;SDS011;61387;48.112;8.616;2022-11-15T14:50:22;19.60;;;8.63;;
27744;SDS011;61387;48.112;8.616;2022-11-15T14:52:48;9.00;;;6.17;;
27744;SDS011;61387;48.112;8.616;2022-11-15T14:55:16;9.30;;;4.90;;
27744;SDS011;61387;48.112;8.616;2022-11-15T14:57:45;12.00;;;6.80;;
27744;SDS011;61387;48.112;8.616;2022-11-15T15:00:12;10.33;;;5.00;;
27744;SDS011;61387;48.112;8.616;2022-11-15T15:02:38;18.37;;;8.43;;
27744;SDS011;61387;48.112;8.616;2022-11-15T15:05:12;12.40;;;7.00;;
27744;SDS011;61387;48.112;8.616;2022-11-15T15:07:42;20.17;;;10.70;;
27744;SDS011;61387;48.112;8.616;2022-11-15T15:10:09;36.70;;;17.93;;
27744;SDS011;61387;48.112;8.616;2022-11-15T15:12:35;94.13;;;38.43;;
27744;SDS011;61387;48.112;8.616;2022-11-15T15:15:01;80.97;;;34.70;;
27744;SDS011;61387;48.112;8.616;2022-11-15T15:17:26;32.83;;;15.83;;
27744;SDS011;61387;48.112;8.616;2022-11-15T15:19:52;13.40;;;7.73;;
27744;SDS011;61387;48.112;8.616;2022-11-15T15:22:18;11.67;;;5.40;;
27744;SDS011;61387;48.112;8.616;2022-11-15T15:24:47;12.60;;;4.23;;
27744;SDS011;61387;48.112;8.616;2022-11-15T15:27:13;9.67;;;4.00;;
27744;SDS011;61387;48.112;8.616;2022-11-15T15:29:39;8.97;;;4.27;;
27744;SDS011;61387;48.112;8.616;2022-11-15T15:32:05;10.40;;;5.33;;
27744;SDS011;61387;48.112;8.616;2022-11-15T15:34:32;9.13;;;4.60;;
27744;SDS011;61387;48.112;8.616;2022-11-15T15:39:47;11.70;;;5.67;;
27744;SDS011;61387;48.112;8.616;2022-11-15T15:42:13;7.70;;;5.07;;
27744;SDS011;61387;48.112;8.616;2022-11-15T15:44:39;6.97;;;4.03;;
27744;SDS011;61387;48.112;8.616;2022-11-15T15:47:10;9.67;;;5.10;;
27744;SDS011;61387;48.112;8.616;2022-11-15T15:49:47;9.70;;;4.80;;
27744;SDS011;61387;48.112;8.616;2022-11-15T15:52:13;11.77;;;5.03;;
27744;SDS011;61387;48.112;8.616;2022-11-15T15:54:39;10.13;;;5.60;;
27744;SDS011;61387;48.112;8.616;2022-11-15T15:57:06;11.57;;;6.23;;
27744;SDS011;61387;48.112;8.616;2022-11-15T15:59:32;14.37;;;6.53;;
27744;SDS011;61387;48.112;8.616;2022-11-15T16:01:58;12.53;;;6.70;;
27744;SDS011;61387;48.112;8.616;2022-11-15T16:04:24;11.40;;;7.60;;
27744;SDS011;61387;48.112;8.616;2022-11-15T16:06:51;10.00;;;6.40;;
27744;SDS011;61387;48.112;8.616;2022-11-15T16:09:18;11.37;;;6.37;;
27744;SDS011;61387;48.112;8.616;2022-11-15T16:12:04;11.30;;;5.90;;
27744;SDS011;61387;48.112;8.616;2022-11-15T16:14:30;14.20;;;6.33;;
27744;SDS011;61387;48.112;8.616;2022-11-15T16:16:56;12.43;;;6.60;;
27744;SDS011;61387;48.112;8.616;2022-11-15T16:19:22;13.30;;;7.47;;
27744;SDS011;61387;48.112;8.616;2022-11-15T16:21:48;10.87;;;7.57;;
27744;SDS011;61387;48.112;8.616;2022-11-15T16:24:14;15.90;;;10.00;;
27744;SDS011;61387;48.112;8.616;2022-11-15T16:26:40;27.13;;;17.73;;
27744;SDS011;61387;48.112;8.616;2022-11-15T16:29:07;30.33;;;19.67;;
27744;SDS011;61387;48.112;8.616;2022-11-15T16:31:34;17.30;;;10.93;;
27744;SDS011;61387;48.112;8.616;2022-11-15T16:34:00;13.73;;;9.10;;
27744;SDS011;61387;48.112;8.616;2022-11-15T16:36:26;14.50;;;9.07;;
27744;SDS011;61387;48.112;8.616;2022-11-15T16:38:54;16.13;;;9.43;;
27744;SDS011;61387;48.112;8.616;2022-11-15T16:41:20;14.93;;;7.20;;
27744;SDS011;61387;48.112;8.616;2022-11-15T16:43:46;9.60;;;6.17;;
27744;SDS011;61387;48.112;8.616;2022-11-15T16:46:17;10.77;;;6.53;;
27744;SDS011;61387;48.112;8.616;2022-11-15T16:48:50;13.63;;;8.03;;
27744;SDS011;61387;48.112;8.616;2022-11-15T16:51:16;14.53;;;8.50;;
27744;SDS011;61387;48.112;8.616;2022-11-15T16:53:42;24.57;;;14.87;;
27744;SDS011;61387;48.112;8.616;2022-11-15T16:56:29;36.73;;;21.17;;
27744;SDS011;61387;48.112;8.616;2022-11-15T16:58:55;21.77;;;11.73;;
27744;SDS011;61387;48.112;8.616;2022-11-15T17:01:30;15.40;;;8.40;;